Accueil
METAR-TAF:

METAR-TAF

Aéroports :

Base aérienne de Morón

Morón de la Frontera, Espagne

latitude: 37-09N, longitude: 005-37W, altitude: 87 m

Observation

Le bulletin a été fait il y a 25 minutes, à 12:00 UTC
Vent 5 kt de sud-ouest, variant entre sud/sud-est et nord-ouest
Température 26°C
Humidité 42%
Pression 1015 hPa
Visibilité 10 km ou plus
Quelques nuages à une hauteur de 2800 ft

METAR: LEMO 021200Z 23005KT 150V320 9999 FEW028 26/12 Q1015 NOSIG

Heure: 14:25 (12:25 UTC)

Prévision

Le bulletin a été fait il y a 1 heure et 25 minutes, à 11:00 UTC
Prévision valable du 02 à 12 UTC au 02 à 21 UTC
Vent 2 kt de direction variable
Visibilité 10 km ou plus
pas de nuages en-dessous de 1500 mètres et pas de cumulonimbus.
Evoluant progressivement
du 02 à 12 UTC au 02 à 14 UTC
Vent 11 kt de ouest/sud-ouest

TAF: LEMO 021100Z 0212/0221 VRB02KT CAVOK BECMG 0212/0214 25011KT

Observations et prévisions météorologiques de plus de 4000 aéroports (messages METAR et TAF).

Les stations disponibles sont représentées par des disques jaunes et rouges sur la carte.

Passer la souris dessus pour voir le nom de la station.

Cliquer dessus pour voir les observations et prévisions météorologiques.

Pour changer de carte: cliquez sur les boutons verts avec une croix noire pour zoomer, sur le bouton vert avec un tiret pour effectuer un zoom arrière, ou sur les flèches vertes pour les cartes adjacentes.


METAR-TAF: